Terminal Aerodrome Forecast
Issued by NWS

Home | Current Version | Previous Version | Graphics & Text | Print | Product List | Glossary On
Versions: 1 2 3 4 5 6 7 8 9 10 11 12 13 14 15 16 17
183
FTUS43 KICT 231731 AAA
TAFSLN
TAF AMD
KSLN 231731Z 2318/2418 02006KT P6SM BKN015
     FM240000 07007KT P6SM BKN009
     FM240100 06008KT P6SM -FZDZ BKN009
     FM240600 05008KT 5SM -FZDZ OVC004
     FM241700 34006KT P6SM VCSH OVC004=

USA.gov is the U.S. government's official web portal to all federal, state and local government web resources and services.